createdAt,value
2018-03-26T00:02:27.594Z,98.80
2018-03-26T00:04:56.110Z,98.90
2018-03-26T00:07:23.710Z,98.90
2018-03-26T00:09:51.248Z,99.00
2018-03-26T00:12:18.866Z,99.10
2018-03-26T00:14:46.510Z,99.30
2018-03-26T00:17:14.046Z,99.50
2018-03-26T00:19:41.754Z,99.70
2018-03-26T00:22:09.286Z,99.90
2018-03-26T00:24:37.582Z,99.90
2018-03-26T00:27:06.105Z,99.90
2018-03-26T00:29:33.654Z,99.90
2018-03-26T00:32:01.190Z,99.90
2018-03-26T00:34:28.918Z,99.90
2018-03-26T00:36:56.449Z,99.90
2018-03-26T00:39:24.782Z,99.90
2018-03-26T00:41:52.366Z,99.90
2018-03-26T00:44:20.685Z,99.90
2018-03-26T00:46:48.217Z,99.90
2018-03-26T00:49:15.887Z,99.90
2018-03-26T00:51:43.462Z,99.90
2018-03-26T00:54:10.989Z,99.90
2018-03-26T00:56:39.321Z,99.90
2018-03-26T00:59:06.995Z,99.90
2018-03-26T01:01:34.537Z,99.90
2018-03-26T01:04:02.218Z,99.90
2018-03-26T01:06:29.755Z,99.90
2018-03-26T01:08:57.283Z,99.90
2018-03-26T01:11:24.873Z,99.90
2018-03-26T01:13:52.422Z,99.90
2018-03-26T01:16:19.997Z,99.90
2018-03-26T01:18:47.671Z,99.90
2018-03-26T01:21:15.201Z,99.90
2018-03-26T01:23:43.550Z,99.90
2018-03-26T01:26:11.125Z,99.90
2018-03-26T01:28:38.654Z,99.90
2018-03-26T01:31:06.241Z,99.90
2018-03-26T01:33:33.830Z,99.90
2018-03-26T01:36:01.370Z,99.90
2018-03-26T01:38:28.907Z,99.90
2018-03-26T01:40:57.254Z,99.90
2018-03-26T01:43:24.785Z,99.90
2018-03-26T01:45:52.320Z,99.90
2018-03-26T01:48:19.952Z,99.90
2018-03-26T01:50:47.500Z,99.90
2018-03-26T01:53:15.031Z,99.90
2018-03-26T01:55:42.608Z,99.90
2018-03-26T01:58:10.130Z,99.90
2018-03-26T02:00:37.662Z,99.90
2018-03-26T02:03:06.007Z,99.90
2018-03-26T02:05:33.579Z,99.90
2018-03-26T02:08:01.112Z,99.90
2018-03-26T02:10:29.458Z,99.90
2018-03-26T02:12:56.994Z,99.90
2018-03-26T02:15:24.538Z,99.90
2018-03-26T02:17:52.884Z,99.90
2018-03-26T02:20:20.411Z,99.90
2018-03-26T02:22:47.941Z,99.90
2018-03-26T02:25:15.621Z,99.90
2018-03-26T02:27:43.145Z,99.90
2018-03-26T02:30:10.681Z,99.90
2018-03-26T02:32:38.258Z,99.90
2018-03-26T02:35:05.854Z,99.90
2018-03-26T02:37:33.431Z,99.90
2018-03-26T02:40:01.111Z,99.90
2018-03-26T02:42:28.647Z,99.90
2018-03-26T02:44:56.243Z,99.90
2018-03-26T02:47:23.852Z,99.90
2018-03-26T02:49:51.481Z,99.90
2018-03-26T02:52:19.022Z,99.90
2018-03-26T02:54:47.562Z,99.90
2018-03-26T02:57:15.115Z,99.90
2018-03-26T02:59:42.646Z,99.90
2018-03-26T03:02:10.223Z,99.90
2018-03-26T03:04:38.558Z,99.90
2018-03-26T03:07:06.090Z,99.90
2018-03-26T03:09:34.438Z,99.90
2018-03-26T03:12:01.994Z,99.90
2018-03-26T03:14:29.526Z,99.90
2018-03-26T03:16:57.966Z,99.90
2018-03-26T03:19:25.491Z,99.90
2018-03-26T03:21:53.812Z,99.90
2018-03-26T03:24:21.386Z,99.90
2018-03-26T03:26:48.960Z,99.90
2018-03-26T03:29:16.484Z,99.90
2018-03-26T03:31:44.927Z,99.90
2018-03-26T03:34:12.486Z,99.90
2018-03-26T03:36:40.054Z,99.90
2018-03-26T03:39:07.652Z,99.90
2018-03-26T03:41:35.181Z,99.90
2018-03-26T03:44:02.711Z,99.90
2018-03-26T03:46:30.442Z,99.90
2018-03-26T03:48:57.963Z,99.90
2018-03-26T03:51:25.494Z,99.90
2018-03-26T03:53:53.062Z,99.90
2018-03-26T03:56:20.589Z,99.90
2018-03-26T03:58:48.889Z,99.90
2018-03-26T04:01:17.237Z,99.90
2018-03-26T04:03:44.878Z,99.90
2018-03-26T04:06:12.416Z,99.90
2018-03-26T04:08:40.750Z,99.90
2018-03-26T04:11:08.283Z,99.90
2018-03-26T04:13:36.595Z,99.90
2018-03-26T04:16:04.223Z,99.90
2018-03-26T04:18:31.727Z,99.90
2018-03-26T04:20:59.259Z,99.90
2018-03-26T04:23:26.837Z,99.90
2018-03-26T04:25:55.182Z,99.90
2018-03-26T04:28:22.716Z,99.90
2018-03-26T04:30:51.057Z,99.90
2018-03-26T04:33:18.590Z,99.90
2018-03-26T04:35:46.121Z,99.90
2018-03-26T04:38:13.703Z,99.90
2018-03-26T04:40:42.032Z,99.90
2018-03-26T04:43:09.556Z,99.90
2018-03-26T04:45:37.130Z,99.90
2018-03-26T04:48:04.754Z,99.90
2018-03-26T04:50:32.320Z,99.90
2018-03-26T04:52:59.894Z,99.90
2018-03-26T04:55:27.418Z,99.90
2018-03-26T04:57:55.712Z,99.90
2018-03-26T05:00:24.042Z,99.90
2018-03-26T05:02:51.613Z,99.90
2018-03-26T05:05:19.160Z,99.90
2018-03-26T05:07:46.731Z,99.90
2018-03-26T05:10:14.263Z,99.90
2018-03-26T05:12:41.912Z,99.90
2018-03-26T05:15:09.561Z,99.90
2018-03-26T05:17:37.129Z,99.90
2018-03-26T05:20:04.647Z,99.90
2018-03-26T05:22:32.994Z,99.90
2018-03-26T05:25:00.526Z,99.90
2018-03-26T05:27:28.844Z,99.90
2018-03-26T05:29:56.432Z,99.90
2018-03-26T05:32:23.971Z,99.90
2018-03-26T05:34:52.265Z,99.90
2018-03-26T05:37:19.854Z,99.90
2018-03-26T05:39:47.374Z,99.90
2018-03-26T05:42:14.906Z,99.90
2018-03-26T05:44:42.478Z,99.90
2018-03-26T05:47:10.057Z,99.90
2018-03-26T05:49:37.591Z,99.90
2018-03-26T05:52:05.402Z,99.90
2018-03-26T05:54:32.934Z,99.90
2018-03-26T05:57:01.226Z,99.90
2018-03-26T05:59:28.818Z,99.90
2018-03-26T06:01:56.390Z,99.90
2018-03-26T06:04:23.914Z,99.90
2018-03-26T06:06:52.350Z,99.90
2018-03-26T06:09:19.922Z,99.90
2018-03-26T06:11:47.446Z,99.90
2018-03-26T06:14:16.606Z,99.90
2018-03-26T06:16:45.785Z,99.90
2018-03-26T06:19:14.079Z,99.90
2018-03-26T06:21:41.651Z,99.90
2018-03-26T06:24:09.247Z,99.90
2018-03-26T06:26:36.766Z,99.90
2018-03-26T06:29:04.336Z,99.90
2018-03-26T06:31:31.863Z,99.90
2018-03-26T06:33:59.386Z,99.90
2018-03-26T06:36:33.464Z,99.90
2018-03-26T06:41:57.154Z,99.90
2018-03-26T06:44:24.674Z,99.90
2018-03-26T06:46:52.204Z,99.90
2018-03-26T06:49:19.894Z,99.90
2018-03-26T06:51:47.434Z,99.90
2018-03-26T06:54:15.022Z,99.90
2018-03-26T06:56:42.626Z,99.90
2018-03-26T06:59:10.180Z,99.90
2018-03-26T07:01:37.734Z,99.90
2018-03-26T07:04:05.295Z,99.90
2018-03-26T07:06:32.818Z,99.90
2018-03-26T07:09:00.351Z,99.90
2018-03-26T07:11:27.976Z,99.90
2018-03-26T07:13:55.473Z,99.90
2018-03-26T07:16:23.003Z,99.90
2018-03-26T07:18:50.577Z,99.90
2018-03-26T07:21:18.105Z,99.90
2018-03-26T07:23:45.634Z,99.90
2018-03-26T07:26:14.071Z,99.90
2018-03-26T07:28:41.594Z,99.90
2018-03-26T07:31:09.930Z,99.90
2018-03-26T07:33:37.526Z,99.90
2018-03-26T07:36:05.045Z,99.90
2018-03-26T07:38:32.571Z,99.90
2018-03-26T07:41:00.146Z,99.90
2018-03-26T07:43:27.674Z,99.90
2018-03-26T07:45:55.200Z,99.90
2018-03-26T07:48:22.926Z,99.90
2018-03-26T07:50:50.499Z,99.90
2018-03-26T07:53:18.078Z,99.90
2018-03-26T07:55:45.647Z,99.90
2018-03-26T07:58:13.190Z,99.90
2018-03-26T08:00:40.719Z,99.90
2018-03-26T08:03:08.354Z,99.90
2018-03-26T08:05:35.881Z,99.90
2018-03-26T08:08:04.184Z,99.90
2018-03-26T08:10:32.518Z,99.90
2018-03-26T08:13:00.046Z,99.90
2018-03-26T08:15:27.578Z,99.90
2018-03-26T08:17:55.146Z,99.90
2018-03-26T08:20:22.679Z,99.90
2018-03-26T08:22:50.259Z,99.90
2018-03-26T08:25:17.822Z,99.90
2018-03-26T08:27:45.346Z,99.90
2018-03-26T08:30:12.874Z,99.90
2018-03-26T08:32:40.447Z,99.90
2018-03-26T08:35:07.971Z,99.90
2018-03-26T08:37:36.257Z,99.90
2018-03-26T08:40:04.586Z,99.90
2018-03-26T08:42:32.161Z,99.90
2018-03-26T08:44:59.646Z,99.90
2018-03-26T08:47:27.222Z,99.90
2018-03-26T08:49:54.828Z,99.90
2018-03-26T08:52:22.292Z,99.90
2018-03-26T08:54:50.018Z,99.90
2018-03-26T08:57:17.554Z,99.90
2018-03-26T08:59:45.842Z,99.90
2018-03-26T09:02:14.267Z,99.90
2018-03-26T09:04:41.794Z,99.90
2018-03-26T09:07:10.127Z,99.90
2018-03-26T09:09:37.686Z,99.90
2018-03-26T09:12:05.210Z,99.90
2018-03-26T09:14:32.738Z,99.90
2018-03-26T09:17:00.370Z,99.90
2018-03-26T09:19:28.675Z,99.90
2018-03-26T09:21:56.206Z,99.90
2018-03-26T09:24:23.790Z,99.90
2018-03-26T09:26:51.322Z,99.90
2018-03-26T09:29:18.886Z,99.90
2018-03-26T09:31:46.555Z,99.90
2018-03-26T09:34:14.081Z,99.90
2018-03-26T09:36:41.611Z,99.90
2018-03-26T09:39:09.174Z,99.90
2018-03-26T09:41:36.694Z,99.90
2018-03-26T09:44:04.986Z,99.90
2018-03-26T09:46:33.319Z,99.90
2018-03-26T09:49:00.890Z,99.90
2018-03-26T09:51:28.418Z,99.90
2018-03-26T09:53:56.848Z,99.90
2018-03-26T09:56:24.408Z,99.90
2018-03-26T09:58:51.988Z,99.90
2018-03-26T10:01:20.286Z,99.90
2018-03-26T10:03:47.846Z,99.90
2018-03-26T10:06:15.776Z,99.90
2018-03-26T10:08:44.238Z,99.90
2018-03-26T10:11:11.771Z,99.90
2018-03-26T10:13:40.351Z,99.90
2018-03-26T10:16:08.857Z,99.90
2018-03-26T10:18:36.547Z,99.90
2018-03-26T10:21:04.230Z,99.90
2018-03-26T10:23:32.128Z,99.90
2018-03-26T10:26:00.206Z,99.90
2018-03-26T10:28:27.851Z,99.90
2018-03-26T10:30:56.553Z,99.90
2018-03-26T10:33:24.229Z,99.90
2018-03-26T10:35:52.059Z,99.90
2018-03-26T10:38:19.798Z,99.90
2018-03-26T10:40:47.565Z,99.90
2018-03-26T10:43:15.643Z,99.90
2018-03-26T10:45:43.494Z,99.90
2018-03-26T10:48:12.207Z,99.90
2018-03-26T10:50:40.019Z,99.90
2018-03-26T10:53:08.103Z,99.90
2018-03-26T10:55:42.252Z,99.90
2018-03-26T10:58:12.438Z,99.90
2018-03-26T11:00:46.793Z,99.90
2018-03-26T11:03:21.721Z,99.90
2018-03-26T11:05:55.902Z,99.90
2018-03-26T11:08:24.314Z,99.90
2018-03-26T11:10:52.071Z,99.90
2018-03-26T11:13:20.654Z,99.90
2018-03-26T11:15:49.337Z,99.90
2018-03-26T11:18:24.118Z,99.90
2018-03-26T11:20:56.834Z,99.90
2018-03-26T11:23:25.139Z,99.90
2018-03-26T11:25:52.765Z,99.90
2018-03-26T11:28:20.568Z,99.90
2018-03-26T11:30:48.134Z,99.90
2018-03-26T11:33:16.624Z,99.90
2018-03-26T11:35:44.386Z,99.90
2018-03-26T11:38:11.951Z,99.90
2018-03-26T11:40:39.634Z,99.90
2018-03-26T11:43:07.971Z,99.90
2018-03-26T11:45:35.502Z,99.90
2018-03-26T11:48:03.811Z,99.70
2018-03-26T11:50:31.389Z,99.60
2018-03-26T11:52:58.911Z,99.60
2018-03-26T11:55:26.656Z,99.60
2018-03-26T11:57:54.506Z,99.60
2018-03-26T12:00:22.121Z,99.00
2018-03-26T12:02:49.644Z,99.20
2018-03-26T12:05:17.629Z,99.10
2018-03-26T12:07:45.208Z,99.10
2018-03-26T12:10:12.979Z,99.10
2018-03-26T12:12:40.652Z,99.10
2018-03-26T12:15:08.226Z,98.60
2018-03-26T12:17:35.801Z,98.50
2018-03-26T12:20:15.449Z,98.10
2018-03-26T12:22:43.004Z,98.00
2018-03-26T12:25:17.493Z,97.90
2018-03-26T12:27:56.843Z,97.90
2018-03-26T12:30:24.421Z,97.30
2018-03-26T12:32:52.155Z,97.00
2018-03-26T12:35:31.600Z,96.70
2018-03-26T12:37:59.376Z,96.90
2018-03-26T12:40:38.834Z,96.80
2018-03-26T12:43:06.393Z,96.80
2018-03-26T12:45:45.955Z,96.40
2018-03-26T12:48:13.499Z,96.20
2018-03-26T12:50:54.001Z,96.60
2018-03-26T12:53:21.657Z,96.50
2018-03-26T12:55:49.980Z,96.90
2018-03-26T12:58:29.299Z,96.90
2018-03-26T13:01:08.763Z,97.20
2018-03-26T13:03:36.639Z,97.00
2018-03-26T13:06:04.213Z,97.40
2018-03-26T13:08:31.812Z,97.10
2018-03-26T13:10:59.765Z,97.30
2018-03-26T13:13:27.294Z,97.50
2018-03-26T13:15:55.126Z,97.50
2018-03-26T13:18:22.860Z,97.40
2018-03-26T13:20:51.306Z,97.50
2018-03-26T13:23:19.819Z,97.40
2018-03-26T13:25:47.488Z,97.40
2018-03-26T13:28:15.149Z,97.50
2018-03-26T13:30:42.689Z,98.00
2018-03-26T13:33:10.370Z,98.00
2018-03-26T13:35:37.914Z,98.10
2018-03-26T13:38:06.219Z,98.40
2018-03-26T13:40:33.860Z,98.40
2018-03-26T13:43:02.194Z,98.70
2018-03-26T13:45:29.779Z,98.90
2018-03-26T13:47:57.354Z,97.90
2018-03-26T13:50:24.903Z,97.80
2018-03-26T13:52:52.470Z,98.20
2018-03-26T13:55:20.155Z,98.10
2018-03-26T13:57:47.695Z,97.60
2018-03-26T14:00:15.986Z,97.90
2018-03-26T14:02:44.398Z,97.60
2018-03-26T14:05:11.918Z,97.60
2018-03-26T14:07:39.551Z,97.20
2018-03-26T14:10:18.984Z,97.00
2018-03-26T14:12:58.471Z,97.30
2018-03-26T14:15:38.531Z,96.90
2018-03-26T14:18:06.299Z,96.10
2018-03-26T14:20:33.834Z,95.90
2018-03-26T14:23:02.264Z,95.90
2018-03-26T14:25:29.786Z,95.90
2018-03-26T14:27:58.082Z,95.70
2018-03-26T14:30:26.493Z,95.80
2018-03-26T14:32:54.386Z,95.80
2018-03-26T14:38:23.839Z,96.00
2018-03-26T14:40:51.410Z,96.40
2018-03-26T14:43:18.935Z,96.80
2018-03-26T14:45:47.226Z,96.30
2018-03-26T14:48:15.032Z,96.30
2018-03-26T14:50:42.565Z,96.20
2018-03-26T14:53:10.888Z,95.90
2018-03-26T14:55:38.451Z,95.60
2018-03-26T14:58:06.043Z,95.40
2018-03-26T15:00:33.570Z,95.40
2018-03-26T15:03:02.006Z,95.00
2018-03-26T15:05:29.542Z,95.00
2018-03-26T15:07:57.835Z,94.90
2018-03-26T15:10:26.362Z,95.30
2018-03-26T15:12:53.899Z,94.90
2018-03-26T15:15:22.196Z,95.10
2018-03-26T15:17:49.795Z,95.10
2018-03-26T15:20:17.337Z,95.10
2018-03-26T15:22:44.866Z,94.90
2018-03-26T15:25:12.443Z,95.20
2018-03-26T15:27:40.064Z,95.20
2018-03-26T15:30:07.654Z,95.30
2018-03-26T15:32:35.250Z,95.30
2018-03-26T15:35:02.801Z,95.30
2018-03-26T15:37:30.330Z,95.20
2018-03-26T15:39:58.765Z,95.10
2018-03-26T15:42:26.287Z,95.10
2018-03-26T15:44:54.579Z,95.00
2018-03-26T15:47:23.098Z,95.10
2018-03-26T15:49:50.623Z,95.10
2018-03-26T15:52:18.235Z,95.80
2018-03-26T15:54:46.224Z,95.50
2018-03-26T15:57:14.530Z,95.80
2018-03-26T15:59:42.090Z,95.80
2018-03-26T16:02:09.158Z,96.10
2018-03-26T16:04:36.696Z,96.60
2018-03-26T16:07:04.263Z,96.70
2018-03-26T16:09:31.923Z,96.80
2018-03-26T16:12:00.206Z,96.70
2018-03-26T16:14:28.499Z,97.10
2018-03-26T16:16:56.832Z,96.70
2018-03-26T16:19:24.359Z,96.60
2018-03-26T16:21:52.654Z,96.60
2018-03-26T16:24:20.982Z,96.60
2018-03-26T16:26:48.564Z,96.50
2018-03-26T16:29:16.110Z,96.50
2018-03-26T16:31:43.676Z,96.70
2018-03-26T16:34:11.202Z,96.80
2018-03-26T16:36:38.717Z,96.70
2018-03-26T16:39:06.302Z,96.60
2018-03-26T16:41:45.739Z,96.20
2018-03-26T16:44:13.309Z,96.10
2018-03-26T16:46:40.834Z,95.70
2018-03-26T16:49:08.363Z,95.40
2018-03-26T16:51:35.938Z,95.30
2018-03-26T16:54:04.539Z,95.50
2018-03-26T16:56:32.899Z,95.60
2018-03-26T16:59:00.585Z,95.50
2018-03-26T17:01:28.174Z,95.60
2018-03-26T17:03:55.738Z,96.00
2018-03-26T17:06:23.607Z,96.20
2018-03-26T17:08:51.158Z,96.30
2018-03-26T17:11:19.451Z,96.10
2018-03-26T17:13:47.774Z,96.30
2018-03-26T17:16:15.341Z,96.30
2018-03-26T17:18:42.866Z,96.50
2018-03-26T17:21:11.406Z,97.30
2018-03-26T17:23:38.963Z,97.10
2018-03-26T17:26:06.499Z,97.50
2018-03-26T17:28:34.934Z,97.80
2018-03-26T17:31:02.456Z,97.80
2018-03-26T17:33:29.987Z,97.90
2018-03-26T17:35:57.560Z,97.50
2018-03-26T17:38:25.118Z,97.70
2018-03-26T17:40:52.760Z,97.70
2018-03-26T17:43:21.135Z,97.60
2018-03-26T17:45:48.670Z,97.60
2018-03-26T17:48:16.222Z,98.10
2018-03-26T17:50:43.809Z,97.50
2018-03-26T17:53:11.414Z,97.60
2018-03-26T17:55:38.945Z,97.60
2018-03-26T17:58:06.536Z,97.60
2018-03-26T18:00:34.595Z,97.70
2018-03-26T18:03:02.216Z,97.60
2018-03-26T18:05:30.677Z,99.90
2018-03-26T18:07:58.203Z,99.90
2018-03-26T18:10:25.735Z,99.90
2018-03-26T18:12:53.310Z,99.90
2018-03-26T18:15:20.844Z,99.20
2018-03-26T18:17:48.414Z,96.70
2018-03-26T18:20:16.202Z,96.50
2018-03-26T18:22:43.745Z,96.70
2018-03-26T18:25:11.339Z,97.00
2018-03-26T18:27:38.923Z,97.80
2018-03-26T18:30:06.463Z,97.80
2018-03-26T18:32:34.045Z,98.30
2018-03-26T18:35:01.708Z,99.00
2018-03-26T18:37:29.278Z,99.50
2018-03-26T18:39:57.556Z,99.90
2018-03-26T18:42:25.250Z,99.90
2018-03-26T18:44:52.782Z,99.90
2018-03-26T18:47:21.083Z,99.90
2018-03-26T18:49:48.654Z,99.90
2018-03-26T18:52:16.943Z,99.90
2018-03-26T18:54:45.266Z,99.90
2018-03-26T18:57:12.835Z,99.90
2018-03-26T18:59:40.380Z,99.90
2018-03-26T19:02:07.993Z,99.90
2018-03-26T19:04:35.602Z,99.90
2018-03-26T19:07:03.207Z,99.90
2018-03-26T19:09:30.750Z,99.90
2018-03-26T19:11:59.213Z,99.90
2018-03-26T19:14:26.758Z,99.90
2018-03-26T19:16:54.291Z,99.90
2018-03-26T19:19:22.730Z,99.90
2018-03-26T19:21:51.819Z,99.90
2018-03-26T19:24:20.949Z,99.90
2018-03-26T19:26:48.838Z,99.90
2018-03-26T19:29:17.398Z,99.90
2018-03-26T19:31:45.807Z,99.90
2018-03-26T19:34:13.424Z,99.90
2018-03-26T19:36:40.966Z,99.90
2018-03-26T19:39:08.621Z,99.90
2018-03-26T19:41:36.285Z,99.90
2018-03-26T19:44:03.870Z,99.90
2018-03-26T19:46:31.456Z,99.90
2018-03-26T19:48:59.099Z,99.90
2018-03-26T19:51:26.644Z,99.90
2018-03-26T19:53:54.946Z,99.90
2018-03-26T19:56:22.567Z,99.90
2018-03-26T19:58:50.122Z,99.90
2018-03-26T20:01:17.675Z,99.90
2018-03-26T20:03:45.353Z,99.90
2018-03-26T20:06:12.930Z,99.90
2018-03-26T20:08:40.455Z,99.90
2018-03-26T20:11:08.988Z,99.90
2018-03-26T20:13:36.532Z,99.90
2018-03-26T20:16:04.139Z,99.90
2018-03-26T20:18:31.734Z,99.90
2018-03-26T20:20:59.271Z,99.90
2018-03-26T20:23:26.810Z,99.90
2018-03-26T20:25:55.161Z,99.90
2018-03-26T20:28:22.690Z,99.90
2018-03-26T20:30:50.291Z,99.90
2018-03-26T20:33:17.971Z,99.90
2018-03-26T20:35:45.523Z,99.90
2018-03-26T20:38:13.083Z,99.90
2018-03-26T20:40:40.666Z,99.90
2018-03-26T20:43:08.304Z,99.90
2018-03-26T20:45:36.640Z,99.90
2018-03-26T20:48:04.211Z,99.90
2018-03-26T20:50:31.758Z,99.90
2018-03-26T20:52:59.300Z,99.90
2018-03-26T20:55:27.656Z,99.90
2018-03-26T20:57:55.182Z,99.90
2018-03-26T21:00:22.718Z,99.90
2018-03-26T21:02:50.338Z,99.90
2018-03-26T21:05:17.874Z,99.90
2018-03-26T21:07:46.179Z,99.90
2018-03-26T21:10:14.519Z,99.90
2018-03-26T21:12:42.164Z,99.90
2018-03-26T21:15:09.775Z,99.90
2018-03-26T21:17:38.150Z,99.90
2018-03-26T21:20:05.678Z,99.90
2018-03-26T21:22:33.211Z,99.90
2018-03-26T21:25:00.787Z,99.90
2018-03-26T21:27:28.318Z,99.90
2018-03-26T21:29:55.842Z,99.90
2018-03-26T21:32:24.387Z,99.90
2018-03-26T21:34:51.918Z,99.90
2018-03-26T21:37:20.211Z,99.90
2018-03-26T21:39:48.556Z,99.90
2018-03-26T21:42:16.345Z,99.90
2018-03-26T21:44:43.910Z,99.90
2018-03-26T21:47:11.470Z,99.90
2018-03-26T21:49:39.030Z,99.90
2018-03-26T21:52:06.562Z,99.90
2018-03-26T21:54:34.915Z,99.90
2018-03-26T21:57:02.443Z,99.90
2018-03-26T21:59:29.976Z,99.90
2018-03-26T22:01:58.406Z,99.90
2018-03-26T22:04:25.992Z,99.90
2018-03-26T22:06:53.494Z,99.90
2018-03-26T22:09:21.947Z,99.90
2018-03-26T22:11:49.519Z,99.90
2018-03-26T22:14:17.087Z,99.90
2018-03-26T22:16:44.650Z,99.90
2018-03-26T22:19:12.234Z,99.90
2018-03-26T22:21:39.762Z,99.90
2018-03-26T22:24:08.186Z,99.90
2018-03-26T22:26:35.713Z,99.90
2018-03-26T22:29:03.241Z,99.90
2018-03-26T22:31:30.827Z,99.90
2018-03-26T22:33:58.350Z,99.90
2018-03-26T22:36:26.663Z,99.90
2018-03-26T22:38:54.331Z,99.90
2018-03-26T22:41:21.918Z,99.90
2018-03-26T22:43:49.447Z,99.90
2018-03-26T22:46:17.802Z,99.90
2018-03-26T22:48:45.359Z,99.90
2018-03-26T22:51:12.902Z,99.90
2018-03-26T22:53:40.482Z,99.90
2018-03-26T22:56:08.009Z,99.90
2018-03-26T22:58:36.311Z,99.90
2018-03-26T23:01:04.664Z,99.90
2018-03-26T23:03:32.263Z,99.90
2018-03-26T23:06:00.566Z,99.90
2018-03-26T23:08:28.150Z,99.90
2018-03-26T23:10:55.688Z,99.90
2018-03-26T23:13:24.003Z,99.90
2018-03-26T23:15:51.684Z,99.90
2018-03-26T23:18:19.214Z,99.90
2018-03-26T23:20:46.742Z,99.90
2018-03-26T23:23:14.426Z,99.90
2018-03-26T23:25:41.958Z,99.90
2018-03-26T23:28:09.488Z,99.90
2018-03-26T23:30:37.173Z,99.90
2018-03-26T23:33:04.706Z,99.90
2018-03-26T23:35:32.231Z,99.90
2018-03-26T23:38:00.571Z,99.90
2018-03-26T23:40:28.139Z,99.90
2018-03-26T23:42:55.675Z,99.90
2018-03-26T23:45:23.371Z,99.90
2018-03-26T23:47:50.946Z,99.90
2018-03-26T23:50:18.479Z,99.90
2018-03-26T23:52:47.015Z,99.90
2018-03-26T23:55:14.555Z,99.90
2018-03-26T23:57:42.158Z,99.90
